»·PEaware :: N550BH KFAT-KSMF

N550BH :: KFAT-KSMF

FLIGHT INFORMATION

Flight Status: Arrived
Operator: Privately registered:
United States
More flights under this callsign
Pilot: Ben H. (9170)
Aircraft: CESSNA 550 CITATION 2/S2/BRAVO
(C550)
More flights by this aircraft type
Origin: KFAT Fresno Yosemite Intl
United States
Destination: KSMF Sacramento Intl
United States
More flights between these airports :: More routes between these airports
Route: + CZQ V23 LIN V23 SAC
File this flight plan on PilotEdge
Remarks:
Altitude:
(Current/Filed)
22,000ft
Speed:
(Current/Filed)
350kts
Departed: 09-Nov-18 08:33 PM
Arrived: 09-Nov-18 09:12 PM
Distance/Time
Traveled:
145nm/0:38
Distance/Time
To Go:
Arrived

Flight Plot

Page will automatically refresh every two minutes.


Map Options




Map Legend


Flown Route
Filed Route
Departure Airport
Arrival Airport
Navaid (VOR, NDB)
Fix

Horizontal Profiles

Position Reports

Time Latitude Longitude Heading Altitude Ground
Speed
09-Nov-18 20:18 36.778958 -119.731087 124 339ft 0kts
09-Nov-18 20:19 36.778958 -119.731087 124 339ft 0kts
09-Nov-18 20:20 36.778958 -119.731087 124 339ft 0kts
09-Nov-18 20:21 36.778958 -119.731087 124 339ft 0kts
09-Nov-18 20:22 36.778958 -119.731087 124 339ft 0kts
09-Nov-18 20:23 36.778958 -119.731087 124 339ft 0kts
09-Nov-18 20:24 36.778958 -119.731087 124 339ft 0kts
09-Nov-18 20:25 36.778958 -119.731087 124 339ft 0kts
09-Nov-18 20:26 36.778958 -119.731087 124 339ft 0kts
09-Nov-18 20:27 36.778749 -119.730490 106 339ft 1kts
09-Nov-18 20:28 36.778816 -119.729264 112 339ft 4kts
09-Nov-18 20:29 36.777195 -119.726397 124 339ft 11kts
09-Nov-18 20:30 36.775653 -119.723713 125 339ft 9kts
09-Nov-18 20:31 36.774159 -119.721078 125 339ft 15kts
09-Nov-18 20:32 36.772519 -119.717656 125 339ft 11kts
09-Nov-18 20:33 36.771150 -119.714086 123 339ft 20kts
09-Nov-18 20:34 36.767604 -119.707176 90 339ft 20kts
09-Nov-18 20:35 36.768227 -119.704277 33 339ft 0kts
09-Nov-18 20:36 36.776211 -119.716522 304 936ft 126kts
09-Nov-18 20:37 36.798466 -119.756616 305 4104ft 172kts
09-Nov-18 20:38 36.832732 -119.816210 317 8432ft 199kts
09-Nov-18 20:39 36.868245 -119.847840 324 9990ft 252kts
09-Nov-18 20:40 36.920562 -119.896006 323 13034ft 227kts
09-Nov-18 20:41 36.977092 -119.949151 323 16890ft 218kts
09-Nov-18 20:42 37.017921 -119.987697 322 19174ft 226kts
09-Nov-18 20:43 37.067800 -120.034882 322 21588ft 235kts
09-Nov-18 20:44 37.112983 -120.077718 321 22160ft 291kts
09-Nov-18 20:45 37.183743 -120.144883 321 22154ft 345kts
09-Nov-18 20:46 37.262912 -120.220207 322 22142ft 366kts
09-Nov-18 20:47 37.340901 -120.294499 321 22028ft 323kts
09-Nov-18 20:48 37.409956 -120.360510 321 20947ft 312kts
09-Nov-18 20:49 37.479281 -120.426983 321 20147ft 329kts
09-Nov-18 20:50 37.554818 -120.499576 322 20145ft 353kts
09-Nov-18 20:51 37.628747 -120.570722 321 19896ft 321kts
09-Nov-18 20:52 37.696169 -120.635795 321 18721ft 293kts
09-Nov-18 20:53 37.745360 -120.683294 321 17445ft 257kts
09-Nov-18 20:54 37.788593 -120.725103 321 15721ft 213kts
09-Nov-18 20:55 37.838597 -120.773809 321 13741ft 241kts
09-Nov-18 20:56 37.892465 -120.826206 321 11752ft 249kts
09-Nov-18 20:57 37.946703 -120.879035 321 10026ft 242kts
09-Nov-18 20:58 37.998984 -120.930062 321 10003ft 253kts
09-Nov-18 20:59 38.058507 -120.988317 321 9790ft 282kts
09-Nov-18 21:00 38.109619 -121.057593 310 8205ft 263kts
09-Nov-18 21:01 38.150731 -121.119447 311 6632ft 231kts
09-Nov-18 21:02 38.192360 -121.180806 311 5010ft 227kts
09-Nov-18 21:03 38.232521 -121.239806 311 4984ft 221kts
09-Nov-18 21:04 38.273436 -121.299984 311 4983ft 244kts
09-Nov-18 21:05 38.316503 -121.363473 311 4025ft 233kts
09-Nov-18 21:06 38.356867 -121.423083 311 3990ft 223kts
09-Nov-18 21:07 38.396783 -121.482150 311 3058ft 233kts
09-Nov-18 21:08 38.436562 -121.541131 311 1991ft 187kts
09-Nov-18 21:09 38.471337 -121.575441 335 1999ft 158kts
09-Nov-18 21:10 38.521952 -121.603193 352 1993ft 221kts
09-Nov-18 21:11 38.576446 -121.603165 0 1995ft 199kts
09-Nov-18 21:12 38.623950 -121.602370 1 1243ft 121kts
09-Nov-18 21:13 38.651820 -121.602049 0 675ft 98kts
09-Nov-18 21:14 38.678209 -121.601616 1 233ft 92kts
09-Nov-18 21:15 38.693417 -121.601313 2 29ft 14kts
09-Nov-18 21:16 38.693560 -121.599934 150 29ft 8kts
09-Nov-18 21:17 38.691145 -121.598730 179 29ft 14kts
09-Nov-18 21:18 38.685906 -121.598784 180 29ft 21kts
09-Nov-18 21:19 38.683835 -121.597786 91 29ft 4kts
09-Nov-18 21:20 38.684036 -121.596534 271 29ft 0kts
09-Nov-18 21:21 38.684036 -121.596534 271 29ft 0kts
09-Nov-18 21:22 38.684036 -121.596534 271 29ft 0kts
09-Nov-18 21:23 38.684036 -121.596534 271 29ft 0kts

Navigation Log

Ident Type
Flight plan parsing failed, navigation log unavailable